Time,TemperatureF,DewpointF,PressureIn,WindDirection,WindDirectionDegrees,WindSpeedMPH,WindSpeedGustMPH,Humidity,HourlyPrecipIn,Conditions,Clouds,dailyrainin,SoftwareType,DateUTC
2013-06-24 00:00:00,64.9,60.0,29.81,SSW,202,2.0,6.0,84,0.00,,---,0.00,VWS V14.01,2013-06-24 07:00:00,
2013-06-24 00:13:00,64.7,61.0,29.82,SW,229,1.0,4.0,86,0.00,,,0.00,weatherlink.com 1.10,2013-06-24 07:13:00,
2013-06-24 00:15:00,64.7,60.4,29.82,SW,225,1.0,5.0,86,0.00,,---,0.00,VWS V14.01,2013-06-24 07:15:00,
2013-06-24 00:28:00,64.5,60.0,29.81,WSW,257,4.0,4.0,86,0.00,,,0.00,weatherlink.com 1.10,2013-06-24 07:28:00,
2013-06-24 00:30:00,64.5,60.2,29.81,SW,225,1.0,5.0,86,0.00,,---,0.00,VWS V14.01,2013-06-24 07:30:00,
2013-06-24 00:43:00,64.3,60.0,29.81,SSW,207,2.0,5.0,86,0.00,,,0.00,weatherlink.com 1.10,2013-06-24 07:43:00,
2013-06-24 00:45:00,64.3,60.0,29.81,SSW,202,1.0,7.0,86,0.00,,---,0.00,VWS V14.01,2013-06-24 07:45:00,
2013-06-24 01:14:00,64.3,60.0,29.81,SSW,213,0.0,4.0,85,0.00,,,0.00,weatherlink.com 1.10,2013-06-24 08:14:00,
2013-06-24 01:15:00,64.3,59.7,29.81,SSW,202,1.0,4.0,85,0.00,,---,0.00,VWS V14.01,2013-06-24 08:15:00,
2013-06-24 01:29:00,64.3,60.0,29.81,SW,215,2.0,3.0,85,0.00,,,0.00,weatherlink.com 1.10,2013-06-24 08:29:00,
2013-06-24 01:30:00,64.3,59.7,29.81,SW,225,1.0,3.0,85,0.00,,---,0.00,VWS V14.01,2013-06-24 08:30:00,
2013-06-24 01:44:00,64.3,60.0,29.81,SSW,206,0.0,5.0,85,0.00,,,0.00,weatherlink.com 1.10,2013-06-24 08:44:00,
2013-06-24 01:45:00,64.3,59.7,29.81,SSW,202,1.0,5.0,85,0.00,,---,0.00,VWS V14.01,2013-06-24 08:45:00,
2013-06-24 01:59:00,64.3,60.0,29.81,SSW,195,0.0,4.0,85,0.00,,,0.00,weatherlink.com 1.10,2013-06-24 08:59:00,
2013-06-24 02:14:00,64.3,60.0,29.81,South,190,3.0,5.0,85,0.00,,,0.00,weatherlink.com 1.10,2013-06-24 09:14:00,
2013-06-24 02:15:00,64.3,59.7,29.81,SSW,202,1.0,5.0,85,0.00,,---,0.00,VWS V14.01,2013-06-24 09:15:00,
2013-06-24 02:29:00,64.3,60.0,29.82,SSW,203,0.0,4.0,85,0.00,,,0.00,weatherlink.com 1.10,2013-06-24 09:29:00,
2013-06-24 02:30:00,64.3,59.7,29.82,SSW,202,1.0,4.0,85,0.00,,---,0.00,VWS V14.01,2013-06-24 09:30:00,
2013-06-24 02:44:00,64.2,60.0,29.82,SSW,205,0.0,4.0,86,0.00,,,0.00,weatherlink.com 1.10,2013-06-24 09:44:00,
2013-06-24 02:45:00,64.2,59.9,29.81,SSW,202,1.0,4.0,86,0.00,,---,0.00,VWS V14.01,2013-06-24 09:45:00,
2013-06-24 03:00:00,64.0,60.1,29.81,SSW,202,1.0,4.0,87,0.00,,---,0.00,VWS V14.01,2013-06-24 10:00:00,
2013-06-24 03:14:00,63.7,60.0,29.82,South,188,0.0,2.0,88,0.00,,,0.00,weatherlink.com 1.10,2013-06-24 10:14:00,
2013-06-24 03:15:00,63.7,60.1,29.82,SSW,202,0.0,3.0,88,0.00,,---,0.00,VWS V14.01,2013-06-24 10:15:00,
2013-06-24 03:29:00,63.5,60.0,29.82,South,188,0.0,2.0,88,0.00,,,0.00,weatherlink.com 1.10,2013-06-24 10:29:00,
2013-06-24 03:30:00,63.5,59.9,29.82,South,180,0.0,2.0,88,0.00,,---,0.00,VWS V14.01,2013-06-24 10:30:00,
2013-06-24 03:44:00,63.3,59.0,29.82,South,188,1.0,1.0,87,0.00,,,0.00,weatherlink.com 1.10,2013-06-24 10:44:00,
2013-06-24 03:45:00,63.3,59.4,29.82,South,180,0.0,1.0,87,0.00,,---,0.00,VWS V14.01,2013-06-24 10:45:00,
2013-06-24 03:59:00,63.4,60.0,29.82,South,175,0.0,1.0,87,0.00,,,0.00,weatherlink.com 1.10,2013-06-24 10:59:00,
2013-06-24 04:00:00,63.4,59.5,29.82,South,180,0.0,2.0,87,0.00,,---,0.00,VWS V14.01,2013-06-24 11:00:00,
2013-06-24 04:14:00,63.4,60.0,29.83,South,180,0.0,3.0,89,0.00,,,0.00,weatherlink.com 1.10,2013-06-24 11:14:00,
2013-06-24 04:15:00,63.4,60.1,29.83,South,180,0.0,3.0,89,0.00,,---,0.00,VWS V14.01,2013-06-24 11:15:00,
2013-06-24 04:29:00,63.3,60.0,29.83,SSW,196,0.0,0.0,89,0.00,,,0.00,weatherlink.com 1.10,2013-06-24 11:29:00,
2013-06-24 04:30:00,63.3,60.0,29.83,SSW,202,0.0,3.0,89,0.00,,---,0.00,VWS V14.01,2013-06-24 11:30:00,
2013-06-24 04:44:00,63.1,60.0,29.83,SSW,196,0.0,2.0,89,0.00,,,0.00,weatherlink.com 1.10,2013-06-24 11:44:00,
2013-06-24 04:45:00,63.1,59.8,29.83,SSW,202,0.0,2.0,89,0.00,,---,0.00,VWS V14.01,2013-06-24 11:45:00,
2013-06-24 04:59:00,63.1,60.0,29.83,SSW,197,0.0,1.0,90,0.00,,,0.00,weatherlink.com 1.10,2013-06-24 11:59:00,
2013-06-24 05:00:00,63.1,60.1,29.83,SSW,202,0.0,1.0,90,0.00,,---,0.00,VWS V14.01,2013-06-24 12:00:00,
2013-06-24 05:14:00,63.1,61.0,29.84,South,186,1.0,2.0,91,0.00,,,0.00,weatherlink.com 1.10,2013-06-24 12:14:00,
2013-06-24 05:15:00,63.1,60.4,29.83,SSW,202,0.0,2.0,91,0.00,,---,0.00,VWS V14.01,2013-06-24 12:15:00,
2013-06-24 05:29:00,63.0,61.0,29.84,SSE,162,0.0,3.0,92,0.00,,,0.00,weatherlink.com 1.10,2013-06-24 12:29:00,
2013-06-24 05:30:00,63.0,60.6,29.84,South,180,1.0,5.0,92,0.00,,---,0.00,VWS V14.01,2013-06-24 12:30:00,
2013-06-24 05:44:00,62.9,60.0,29.85,SSE,162,0.0,3.0,91,0.00,,,0.00,weatherlink.com 1.10,2013-06-24 12:44:00,
2013-06-24 05:59:00,62.7,60.0,29.85,SSE,162,0.0,1.0,91,0.00,,,0.00,weatherlink.com 1.10,2013-06-24 12:59:00,
2013-06-24 06:00:00,62.7,60.0,29.85,SSE,158,0.0,2.0,91,0.00,,---,0.00,VWS V14.01,2013-06-24 13:00:00,
2013-06-24 06:29:00,62.9,60.0,29.86,South,183,1.0,2.0,91,0.00,,,0.00,weatherlink.com 1.10,2013-06-24 13:29:00,
2013-06-24 06:30:00,62.9,60.2,29.86,SSW,202,0.0,2.0,91,0.00,,---,0.00,VWS V14.01,2013-06-24 13:30:00,
2013-06-24 06:59:00,63.3,60.0,29.87,South,183,0.0,2.0,89,0.00,,,0.00,weatherlink.com 1.10,2013-06-24 13:59:00,
2013-06-24 07:00:00,63.2,59.9,29.86,South,180,0.0,2.0,89,0.00,,---,0.00,VWS V14.01,2013-06-24 14:00:00,
2013-06-24 07:14:00,63.6,60.0,29.87,SSE,163,0.0,3.0,89,0.00,,,0.00,weatherlink.com 1.10,2013-06-24 14:14:00,
2013-06-24 07:15:00,63.6,60.3,29.87,South,180,0.0,3.0,89,0.00,,---,0.00,VWS V14.01,2013-06-24 14:15:00,
2013-06-24 07:29:00,64.0,60.0,29.87,South,171,0.0,5.0,87,0.00,,,0.00,weatherlink.com 1.10,2013-06-24 14:29:00,
2013-06-24 07:44:00,64.3,61.0,29.88,ESE,119,0.0,3.0,88,0.00,,,0.00,weatherlink.com 1.10,2013-06-24 14:44:00,
2013-06-24 07:45:00,64.2,60.6,29.88,SE,135,1.0,3.0,88,0.00,,---,0.00,VWS V14.01,2013-06-24 14:45:00,
2013-06-24 07:59:00,64.1,61.0,29.89,ESE,109,0.0,4.0,89,0.00,,,0.00,weatherlink.com 1.10,2013-06-24 14:59:00,
2013-06-24 08:00:00,64.2,60.9,29.89,ESE,112,1.0,4.0,89,0.00,,---,0.00,VWS V14.01,2013-06-24 15:00:00,
2013-06-24 08:14:00,64.2,61.0,29.89,SSE,147,0.0,4.0,90,0.00,,,0.00,weatherlink.com 1.10,2013-06-24 15:14:00,
2013-06-24 08:15:00,64.2,61.2,29.89,SSE,158,1.0,4.0,90,0.00,,---,0.00,VWS V14.01,2013-06-24 15:15:00,
2013-06-24 08:29:00,64.0,61.0,29.90,East,97,1.0,3.0,90,0.00,,,0.00,weatherlink.com 1.10,2013-06-24 15:29:00,
2013-06-24 08:30:00,64.0,61.0,29.90,South,180,1.0,3.0,90,0.00,,---,0.00,VWS V14.01,2013-06-24 15:30:00,
2013-06-24 08:44:00,64.1,62.0,29.91,SSW,209,2.0,3.0,91,0.00,,,0.00,weatherlink.com 1.10,2013-06-24 15:44:00,
2013-06-24 08:45:00,64.0,61.3,29.91,South,180,0.0,4.0,91,0.00,,---,0.00,VWS V14.01,2013-06-24 15:45:00,
2013-06-24 08:59:00,64.0,62.0,29.91,South,190,0.0,4.0,92,0.00,,,0.00,weatherlink.com 1.10,2013-06-24 15:59:00,
2013-06-24 09:00:00,63.9,61.5,29.91,South,180,1.0,5.0,92,0.00,,---,0.00,VWS V14.01,2013-06-24 16:00:00,
2013-06-24 09:14:00,63.8,61.0,29.91,SE,140,1.0,4.0,91,0.00,,,0.00,weatherlink.com 1.10,2013-06-24 16:14:00,
2013-06-24 09:15:00,63.9,61.2,29.91,South,180,1.0,4.0,91,0.00,,---,0.00,VWS V14.01,2013-06-24 16:15:00,
2013-06-24 09:29:00,63.8,61.0,29.91,South,169,0.0,4.0,89,0.00,,,0.00,weatherlink.com 1.10,2013-06-24 16:29:00,
2013-06-24 09:30:00,63.7,60.4,29.91,ESE,112,0.0,5.0,89,0.00,,---,0.00,VWS V14.01,2013-06-24 16:30:00,
2013-06-24 09:44:00,64.5,61.0,29.92,South,182,0.0,4.0,88,0.00,,,0.00,weatherlink.com 1.10,2013-06-24 16:44:00,
2013-06-24 09:45:00,64.5,60.9,29.92,South,180,1.0,4.0,88,0.00,,---,0.00,VWS V14.01,2013-06-24 16:45:00,
2013-06-24 09:59:00,65.6,61.0,29.92,SE,136,0.0,4.0,85,0.00,,,0.00,weatherlink.com 1.10,2013-06-24 16:59:00,
2013-06-24 10:00:00,65.5,60.9,29.92,South,180,1.0,4.0,85,0.00,,---,0.00,VWS V14.01,2013-06-24 17:00:00,
2013-06-24 10:14:00,66.8,61.0,29.92,SE,140,0.0,4.0,81,0.00,,,0.00,weatherlink.com 1.10,2013-06-24 17:14:00,
2013-06-24 10:15:00,66.8,61.1,29.92,South,180,1.0,4.0,82,0.00,,---,0.00,VWS V14.01,2013-06-24 17:15:00,
2013-06-24 10:29:00,67.7,61.0,29.92,SSE,154,3.0,4.0,79,0.00,,,0.00,weatherlink.com 1.10,2013-06-24 17:29:00,
2013-06-24 10:30:00,67.7,61.3,29.92,South,180,1.0,5.0,80,0.00,,---,0.00,VWS V14.01,2013-06-24 17:30:00,
2013-06-24 10:44:00,67.8,61.0,29.93,SSW,210,0.0,7.0,79,0.00,,,0.00,weatherlink.com 1.10,2013-06-24 17:44:00,
2013-06-24 10:45:00,67.8,61.1,29.92,South,180,3.0,7.0,79,0.00,,---,0.00,VWS V14.01,2013-06-24 17:45:00,
2013-06-24 10:59:00,68.3,61.0,29.93,ESE,117,2.0,5.0,78,0.00,,,0.00,weatherlink.com 1.10,2013-06-24 17:59:00,
2013-06-24 11:00:00,68.2,61.5,29.93,South,180,1.0,5.0,79,0.00,,---,0.00,VWS V14.01,2013-06-24 18:00:00,
2013-06-24 11:14:00,69.1,61.0,29.92,East,97,3.0,7.0,76,0.00,,,0.00,weatherlink.com 1.10,2013-06-24 18:14:00,
2013-06-24 11:15:00,69.1,61.2,29.92,ESE,112,1.0,7.0,76,0.00,,---,0.00,VWS V14.01,2013-06-24 18:15:00,
2013-06-24 11:30:00,69.0,61.1,29.92,South,180,1.0,5.0,76,0.00,,---,0.00,VWS V14.01,2013-06-24 18:30:00,
2013-06-24 11:45:00,68.9,60.0,29.92,SSW,194,6.0,8.0,74,0.00,,,0.00,weatherlink.com 1.10,2013-06-24 18:45:00,
2013-06-24 11:50:00,68.6,60.4,29.92,SSE,157,0.0,7.0,75,0.00,,---,0.00,VWS V14.01,2013-06-24 18:50:00,
2013-06-24 12:00:00,68.1,60.3,29.92,South,180,2.0,8.0,76,0.00,,---,0.00,VWS V14.01,2013-06-24 19:00:00,
2013-06-24 12:01:00,68.1,60.0,29.92,South,182,1.0,6.0,76,0.00,,,0.00,weatherlink.com 1.10,2013-06-24 19:01:00,
2013-06-24 12:15:00,68.9,60.7,29.92,South,180,3.0,8.0,75,0.00,,---,0.00,VWS V14.01,2013-06-24 19:15:00,
2013-06-24 12:16:00,69.0,61.0,29.92,South,175,0.0,7.0,75,0.00,,,0.00,weatherlink.com 1.10,2013-06-24 19:16:00,
2013-06-24 12:30:00,70.6,61.5,29.91,South,180,2.0,7.0,73,0.00,,---,0.00,VWS V14.01,2013-06-24 19:30:00,
2013-06-24 12:31:00,71.0,62.0,29.91,ESE,109,2.0,8.0,72,0.00,,,0.00,weatherlink.com 1.10,2013-06-24 19:31:00,
2013-06-24 12:45:00,73.0,61.8,29.92,South,180,2.0,8.0,68,0.00,,---,0.00,VWS V14.01,2013-06-24 19:45:00,
2013-06-24 13:00:00,73.1,61.1,29.92,South,180,2.0,8.0,66,0.00,,---,0.00,VWS V14.01,2013-06-24 20:00:00,
2013-06-24 13:01:00,73.0,61.0,29.92,ESE,102,2.0,7.0,67,0.00,,,0.00,weatherlink.com 1.10,2013-06-24 20:01:00,
2013-06-24 13:15:00,74.0,61.9,29.92,South,180,3.0,9.0,66,0.00,,---,0.00,VWS V14.01,2013-06-24 20:15:00,
2013-06-24 13:16:00,74.2,62.0,29.92,SSW,200,4.0,9.0,66,0.00,,,0.00,weatherlink.com 1.10,2013-06-24 20:16:00,
2013-06-24 13:30:00,73.1,60.7,29.92,SSW,202,4.0,8.0,65,0.00,,---,0.00,VWS V14.01,2013-06-24 20:30:00,
2013-06-24 13:45:00,74.3,61.8,29.91,South,180,3.0,9.0,65,0.00,,---,0.00,VWS V14.01,2013-06-24 20:45:00,
2013-06-24 14:00:00,74.8,62.3,29.91,South,180,4.0,8.0,65,0.00,,---,0.00,VWS V14.01,2013-06-24 21:00:00,
2013-06-24 14:01:00,74.9,61.0,29.91,South,180,5.0,11.0,63,0.00,,,0.00,weatherlink.com 1.10,2013-06-24 21:01:00,
2013-06-24 14:15:00,75.1,61.7,29.91,South,180,4.0,11.0,63,0.00,,---,0.00,VWS V14.01,2013-06-24 21:15:00,
2013-06-24 14:30:00,75.5,61.6,29.91,South,180,3.0,9.0,62,0.00,,---,0.00,VWS V14.01,2013-06-24 21:30:00,
2013-06-24 14:31:00,75.5,62.0,29.91,SW,219,4.0,9.0,63,0.00,,,0.00,weatherlink.com 1.10,2013-06-24 21:31:00,
2013-06-24 14:45:00,75.2,62.6,29.91,South,180,4.0,10.0,65,0.00,,---,0.00,VWS V14.01,2013-06-24 21:45:00,
2013-06-24 14:46:00,75.4,61.0,29.91,South,179,5.0,9.0,62,0.00,,,0.00,weatherlink.com 1.10,2013-06-24 21:46:00,
2013-06-24 15:00:00,75.9,62.4,29.90,South,180,4.0,10.0,63,0.00,,---,0.00,VWS V14.01,2013-06-24 22:00:00,
2013-06-24 15:01:00,75.9,61.0,29.90,South,173,4.0,9.0,60,0.00,,,0.00,weatherlink.com 1.10,2013-06-24 22:01:00,
2013-06-24 15:15:00,75.6,61.2,29.91,SSW,202,4.0,9.0,61,0.00,,---,0.00,VWS V14.01,2013-06-24 22:15:00,
2013-06-24 15:16:00,75.3,61.0,29.90,SSW,210,2.0,8.0,62,0.00,,,0.00,weatherlink.com 1.10,2013-06-24 22:16:00,
2013-06-24 15:30:00,75.5,62.0,29.89,SSW,202,4.0,8.0,63,0.00,,---,0.00,VWS V14.01,2013-06-24 22:30:00,
2013-06-24 15:45:00,75.5,61.1,29.89,SSW,202,4.0,9.0,61,0.00,,---,0.00,VWS V14.01,2013-06-24 22:45:00,
2013-06-24 15:46:00,75.5,61.0,29.89,South,182,6.0,8.0,61,0.00,,,0.00,weatherlink.com 1.10,2013-06-24 22:46:00,
2013-06-24 16:00:00,75.8,61.4,29.88,SSW,202,4.0,8.0,61,0.00,,---,0.00,VWS V14.01,2013-06-24 23:00:00,
2013-06-24 16:15:00,75.0,61.1,29.88,SSW,202,3.0,9.0,62,0.00,,---,0.00,VWS V14.01,2013-06-24 23:15:00,
2013-06-24 16:16:00,75.0,61.0,29.88,WSW,257,3.0,9.0,63,0.00,,,0.00,weatherlink.com 1.10,2013-06-24 23:16:00,
2013-06-24 16:30:00,74.9,61.5,29.88,SSW,202,3.0,7.0,63,0.00,,---,0.00,VWS V14.01,2013-06-24 23:30:00,
2013-06-24 16:31:00,74.9,62.0,29.88,SSW,202,6.0,8.0,64,0.00,,,0.00,weatherlink.com 1.10,2013-06-24 23:31:00,
2013-06-24 16:45:00,74.7,61.3,29.88,SSW,202,4.0,9.0,63,0.00,,---,0.00,VWS V14.01,2013-06-24 23:45:00,
2013-06-24 17:00:00,74.7,61.7,29.88,SSW,202,4.0,10.0,64,0.00,,---,0.00,VWS V14.01,2013-06-25 00:00:00,
2013-06-24 17:01:00,74.7,61.0,29.88,SW,229,3.0,11.0,63,0.00,,,0.00,weatherlink.com 1.10,2013-06-25 00:01:00,
2013-06-24 17:15:00,74.8,61.4,29.88,South,180,4.0,11.0,63,0.00,,---,0.00,VWS V14.01,2013-06-25 00:15:00,
2013-06-24 17:16:00,75.0,61.0,29.88,South,178,1.0,10.0,63,0.00,,,0.00,weatherlink.com 1.10,2013-06-25 00:16:00,
2013-06-24 17:30:00,74.1,62.0,29.88,SSW,202,4.0,10.0,66,0.00,,---,0.00,VWS V14.01,2013-06-25 00:30:00,
2013-06-24 17:31:00,74.0,62.0,29.87,South,190,3.0,9.0,66,0.00,,,0.00,weatherlink.com 1.10,2013-06-25 00:31:00,
2013-06-24 17:45:00,73.5,61.5,29.88,SSW,202,4.0,9.0,66,0.00,,---,0.00,VWS V14.01,2013-06-25 00:45:00,
2013-06-24 18:00:00,73.2,61.2,29.87,SSW,202,3.0,10.0,66,0.00,,---,0.00,VWS V14.01,2013-06-25 01:00:00,
2013-06-24 18:02:00,73.3,61.0,29.87,WSW,251,2.0,8.0,66,0.00,,,0.00,weatherlink.com 1.10,2013-06-25 01:02:00,
2013-06-24 18:15:00,73.2,61.6,29.87,SSW,202,3.0,8.0,67,0.00,,---,0.00,VWS V14.01,2013-06-25 01:15:00,
2013-06-24 18:17:00,73.1,61.0,29.87,SW,225,2.0,7.0,67,0.00,,,0.00,weatherlink.com 1.10,2013-06-25 01:17:00,
2013-06-24 18:30:00,72.9,61.3,29.87,SSW,202,3.0,7.0,67,0.00,,---,0.00,VWS V14.01,2013-06-25 01:30:00,
2013-06-24 18:45:00,72.9,60.9,29.88,SSW,202,3.0,8.0,66,0.00,,---,0.00,VWS V14.01,2013-06-25 01:45:00,
2013-06-24 18:47:00,73.0,61.0,29.88,South,175,3.0,8.0,66,0.00,,,0.00,weatherlink.com 1.10,2013-06-25 01:47:00,
2013-06-24 19:00:00,72.9,61.3,29.88,SSW,202,3.0,9.0,67,0.00,,---,0.00,VWS V14.01,2013-06-25 02:00:00,
2013-06-24 19:15:00,71.9,61.2,29.88,SSW,202,3.0,7.0,69,0.00,,---,0.00,VWS V14.01,2013-06-25 02:15:00,
2013-06-24 19:17:00,71.6,61.0,29.88,South,186,7.0,7.0,70,0.00,,,0.00,weatherlink.com 1.10,2013-06-25 02:17:00,
2013-06-24 19:30:00,70.6,61.5,29.88,SSW,202,3.0,8.0,73,0.00,,---,0.00,VWS V14.01,2013-06-25 02:30:00,
2013-06-24 19:45:00,69.7,61.4,29.88,SW,225,2.0,8.0,75,0.00,,---,0.00,VWS V14.01,2013-06-25 02:45:00,
2013-06-24 19:47:00,69.5,62.0,29.88,SW,236,2.0,6.0,76,0.00,,,0.00,weatherlink.com 1.10,2013-06-25 02:47:00,
2013-06-24 20:00:00,69.1,61.6,29.88,SW,225,2.0,6.0,77,0.00,,---,0.00,VWS V14.01,2013-06-25 03:00:00,
2013-06-24 20:02:00,69.0,62.0,29.88,SSW,213,1.0,5.0,77,0.00,,,0.00,weatherlink.com 1.10,2013-06-25 03:02:00,
2013-06-24 20:15:00,68.5,61.7,29.89,SW,225,2.0,7.0,79,0.00,,---,0.00,VWS V14.01,2013-06-25 03:15:00,
2013-06-24 20:17:00,68.3,62.0,29.88,SW,222,0.0,7.0,80,0.00,,,0.00,weatherlink.com 1.10,2013-06-25 03:17:00,
2013-06-24 20:30:00,67.8,61.8,29.89,WSW,248,1.0,6.0,81,0.00,,---,0.00,VWS V14.01,2013-06-25 03:30:00,
2013-06-24 20:32:00,67.7,62.0,29.89,SSW,213,1.0,6.0,81,0.00,,,0.00,weatherlink.com 1.10,2013-06-25 03:32:00,
2013-06-24 20:45:00,67.3,61.6,29.89,WSW,248,1.0,6.0,82,0.00,,---,0.00,VWS V14.01,2013-06-25 03:45:00,
2013-06-24 21:00:00,67.0,61.7,29.89,SSW,202,0.0,3.0,83,0.00,,---,0.00,VWS V14.01,2013-06-25 04:00:00,
2013-06-24 21:02:00,66.8,62.0,29.89,SSW,211,0.0,1.0,83,0.00,,,0.00,weatherlink.com 1.10,2013-06-25 04:02:00,
2013-06-24 21:15:00,66.6,60.9,29.90,SSW,202,0.0,3.0,82,0.00,,---,0.00,VWS V14.01,2013-06-25 04:15:00,
2013-06-24 21:17:00,66.6,61.0,29.90,SSW,211,0.0,3.0,82,0.00,,,0.00,weatherlink.com 1.10,2013-06-25 04:17:00,
2013-06-24 21:30:00,66.5,60.8,29.90,NW,315,0.0,3.0,82,0.00,,---,0.00,VWS V14.01,2013-06-25 04:30:00,
2013-06-24 21:32:00,66.5,61.0,29.90,NNW,328,0.0,4.0,82,0.00,,,0.00,weatherlink.com 1.10,2013-06-25 04:32:00,
2013-06-24 21:45:00,66.3,60.7,29.91,NNW,338,0.0,4.0,82,0.00,,---,0.00,VWS V14.01,2013-06-25 04:45:00,
2013-06-24 21:47:00,66.3,61.0,29.91,NW,323,0.0,4.0,82,0.00,,,0.00,weatherlink.com 1.10,2013-06-25 04:47:00,
2013-06-24 22:00:00,66.1,60.8,29.91,NW,315,0.0,2.0,83,0.00,,---,0.00,VWS V14.01,2013-06-25 05:00:00,
2013-06-24 22:02:00,66.0,61.0,29.91,NW,324,1.0,2.0,84,0.00,,,0.00,weatherlink.com 1.10,2013-06-25 05:02:00,
2013-06-24 22:15:00,65.9,60.9,29.91,NW,315,0.0,3.0,84,0.00,,---,0.00,VWS V14.01,2013-06-25 05:15:00,
2013-06-24 22:17:00,65.9,61.0,29.91,NW,323,0.0,3.0,84,0.00,,,0.00,weatherlink.com 1.10,2013-06-25 05:17:00,
2013-06-24 22:30:00,65.7,60.7,29.91,NW,315,0.0,1.0,84,0.00,,---,0.00,VWS V14.01,2013-06-25 05:30:00,
2013-06-24 22:32:00,65.6,61.0,29.91,NW,323,1.0,1.0,85,0.00,,,0.00,weatherlink.com 1.10,2013-06-25 05:32:00,
2013-06-24 22:45:00,65.4,60.8,29.91,NW,315,0.0,2.0,85,0.00,,---,0.00,VWS V14.01,2013-06-25 05:45:00,
2013-06-24 22:47:00,65.4,61.0,29.91,NW,325,0.0,2.0,85,0.00,,,0.00,weatherlink.com 1.10,2013-06-25 05:47:00,
2013-06-24 23:00:00,65.1,60.5,29.91,NW,315,0.0,0.0,85,0.00,,---,0.00,VWS V14.01,2013-06-25 06:00:00,
2013-06-24 23:02:00,65.1,61.0,29.91,NW,325,0.0,1.0,86,0.00,,,0.00,weatherlink.com 1.10,2013-06-25 06:02:00,
2013-06-24 23:15:00,65.0,61.0,29.91,NW,315,0.0,1.0,87,0.00,,---,0.00,VWS V14.01,2013-06-25 06:15:00,
2013-06-24 23:17:00,64.9,61.0,29.91,NNW,327,0.0,1.0,87,0.00,,,0.00,weatherlink.com 1.10,2013-06-25 06:17:00,
2013-06-24 23:30:00,64.8,60.8,29.91,NNW,338,0.0,2.0,87,0.00,,---,0.00,VWS V14.01,2013-06-25 06:30:00,
2013-06-24 23:32:00,64.8,61.0,29.91,NNW,327,0.0,2.0,87,0.00,,,0.00,weatherlink.com 1.10,2013-06-25 06:32:00,
2013-06-24 23:45:00,64.6,61.0,29.91,NNW,338,0.0,1.0,88,0.00,,---,0.00,VWS V14.01,2013-06-25 06:45:00,
2013-06-24 23:47:00,64.6,61.0,29.91,NNW,327,0.0,1.0,88,0.00,,,0.00,weatherlink.com 1.10,2013-06-25 06:47:00,